sensor_id;sensor_type;location;lat;lon;timestamp;noise_LAeq;noise_LA_min;noise_LA_max;noise_LA01;noise_LA95
47962;Laerm;33723;50.928;6.960;2023-02-07T06:04:01;64.61;50.18;76.08;;
47962;Laerm;33723;50.928;6.960;2023-02-07T06:06:26;64.11;51.01;76.58;;
47962;Laerm;33723;50.928;6.960;2023-02-07T06:08:51;66.07;52.66;75.98;;
47962;Laerm;33723;50.928;6.960;2023-02-07T06:11:16;64.76;55.50;78.51;;
47962;Laerm;33723;50.928;6.960;2023-02-07T06:13:41;64.25;54.09;70.88;;
47962;Laerm;33723;50.928;6.960;2023-02-07T06:16:07;66.30;54.46;76.18;;
47962;Laerm;33723;50.928;6.960;2023-02-07T06:18:34;65.98;53.76;79.68;;
47962;Laerm;33723;50.928;6.960;2023-02-07T06:20:59;68.72;56.50;84.98;;
47962;Laerm;33723;50.928;6.960;2023-02-07T06:23:25;65.96;54.39;75.70;;
47962;Laerm;33723;50.928;6.960;2023-02-07T06:25:50;69.74;53.17;95.03;;
47962;Laerm;33723;50.928;6.960;2023-02-07T06:28:15;66.04;54.02;76.15;;
47962;Laerm;33723;50.928;6.960;2023-02-07T06:30:40;69.34;55.72;80.20;;
47962;Laerm;33723;50.928;6.960;2023-02-07T06:33:06;67.12;57.75;74.35;;
47962;Laerm;33723;50.928;6.960;2023-02-07T06:35:31;65.39;55.14;74.33;;
47962;Laerm;33723;50.928;6.960;2023-02-07T06:37:56;67.39;54.17;77.23;;
47962;Laerm;33723;50.928;6.960;2023-02-07T06:40:21;67.38;53.61;82.91;;
47962;Laerm;33723;50.928;6.960;2023-02-07T06:42:46;67.34;54.91;76.56;;
47962;Laerm;33723;50.928;6.960;2023-02-07T06:45:12;65.47;56.42;75.32;;
47962;Laerm;33723;50.928;6.960;2023-02-07T06:47:37;64.23;54.80;70.32;;
47962;Laerm;33723;50.928;6.960;2023-02-07T06:50:02;66.49;56.71;76.33;;
47962;Laerm;33723;50.928;6.960;2023-02-07T06:52:28;67.87;55.08;81.05;;
47962;Laerm;33723;50.928;6.960;2023-02-07T06:54:53;66.85;55.53;79.58;;
47962;Laerm;33723;50.928;6.960;2023-02-07T06:57:19;67.26;57.75;75.90;;
47962;Laerm;33723;50.928;6.960;2023-02-07T06:59:44;69.06;56.42;81.08;;
47962;Laerm;33723;50.928;6.960;2023-02-07T07:02:10;65.23;56.19;71.21;;
47962;Laerm;33723;50.928;6.960;2023-02-07T07:04:35;67.63;56.86;77.48;;
47962;Laerm;33723;50.928;6.960;2023-02-07T07:07:01;69.29;55.78;79.70;;
47962;Laerm;33723;50.928;6.960;2023-02-07T07:09:26;66.83;55.85;75.49;;
47962;Laerm;33723;50.928;6.960;2023-02-07T07:11:51;68.20;56.73;76.76;;
47962;Laerm;33723;50.928;6.960;2023-02-07T07:14:16;71.13;55.90;90.69;;
47962;Laerm;33723;50.928;6.960;2023-02-07T07:16:42;69.85;58.88;79.98;;
47962;Laerm;33723;50.928;6.960;2023-02-07T07:19:07;66.87;55.55;75.29;;
47962;Laerm;33723;50.928;6.960;2023-02-07T07:21:32;65.38;53.74;72.86;;
47962;Laerm;33723;50.928;6.960;2023-02-07T07:23:58;67.70;54.46;78.48;;
47962;Laerm;33723;50.928;6.960;2023-02-07T07:26:23;67.77;55.42;77.57;;
47962;Laerm;33723;50.928;6.960;2023-02-07T07:28:49;67.64;55.32;75.07;;
47962;Laerm;33723;50.928;6.960;2023-02-07T07:31:14;66.30;54.97;76.17;;
47962;Laerm;33723;50.928;6.960;2023-02-07T07:33:40;68.56;55.47;83.21;;
47962;Laerm;33723;50.928;6.960;2023-02-07T07:36:05;65.63;55.81;76.22;;
47962;Laerm;33723;50.928;6.960;2023-02-07T07:38:30;64.06;53.70;70.52;;
47962;Laerm;33723;50.928;6.960;2023-02-07T07:40:56;67.17;55.99;77.91;;
47962;Laerm;33723;50.928;6.960;2023-02-07T07:43:21;67.15;54.89;80.81;;
47962;Laerm;33723;50.928;6.960;2023-02-07T07:45:50;65.42;53.65;72.72;;
47962;Laerm;33723;50.928;6.960;2023-02-07T07:48:15;68.04;57.05;78.97;;
47962;Laerm;33723;50.928;6.960;2023-02-07T07:50:41;66.49;55.75;73.22;;
47962;Laerm;33723;50.928;6.960;2023-02-07T07:53:06;65.08;52.41;75.74;;
47962;Laerm;33723;50.928;6.960;2023-02-07T07:55:31;66.76;54.18;75.56;;
47962;Laerm;33723;50.928;6.960;2023-02-07T07:57:56;68.00;56.16;78.33;;
47962;Laerm;33723;50.928;6.960;2023-02-07T08:00:21;67.06;53.79;76.82;;
47962;Laerm;33723;50.928;6.960;2023-02-07T08:02:47;66.20;55.73;72.81;;
47962;Laerm;33723;50.928;6.960;2023-02-07T08:05:12;68.40;56.44;81.30;;
47962;Laerm;33723;50.928;6.960;2023-02-07T08:07:37;67.28;52.04;79.16;;
47962;Laerm;33723;50.928;6.960;2023-02-07T08:10:02;68.45;55.22;84.00;;
47962;Laerm;33723;50.928;6.960;2023-02-07T08:12:30;65.77;56.23;75.26;;
47962;Laerm;33723;50.928;6.960;2023-02-07T08:14:56;65.51;54.37;75.06;;
47962;Laerm;33723;50.928;6.960;2023-02-07T08:17:21;64.73;53.70;75.23;;
47962;Laerm;33723;50.928;6.960;2023-02-07T08:19:46;66.28;54.89;78.40;;
47962;Laerm;33723;50.928;6.960;2023-02-07T08:22:11;66.85;53.94;78.25;;
47962;Laerm;33723;50.928;6.960;2023-02-07T08:24:38;68.00;54.83;78.11;;
47962;Laerm;33723;50.928;6.960;2023-02-07T08:27:03;66.73;54.62;78.37;;
47962;Laerm;33723;50.928;6.960;2023-02-07T08:29:29;67.58;52.96;78.97;;
47962;Laerm;33723;50.928;6.960;2023-02-07T08:31:54;65.90;53.72;80.30;;
47962;Laerm;33723;50.928;6.960;2023-02-07T08:34:19;66.05;52.88;79.36;;
47962;Laerm;33723;50.928;6.960;2023-02-07T08:36:48;66.31;53.02;84.42;;
47962;Laerm;33723;50.928;6.960;2023-02-07T08:39:13;66.76;55.04;76.15;;
47962;Laerm;33723;50.928;6.960;2023-02-07T08:41:38;66.75;52.74;77.71;;
47962;Laerm;33723;50.928;6.960;2023-02-07T08:44:04;63.05;52.44;70.84;;
47962;Laerm;33723;50.928;6.960;2023-02-07T08:46:29;69.44;54.84;80.78;;
47962;Laerm;33723;50.928;6.960;2023-02-07T08:48:54;67.31;53.72;80.98;;
47962;Laerm;33723;50.928;6.960;2023-02-07T08:51:19;67.77;51.86;93.49;;
47962;Laerm;33723;50.928;6.960;2023-02-07T08:53:45;64.06;52.66;75.05;;
47962;Laerm;33723;50.928;6.960;2023-02-07T08:56:10;68.20;54.94;78.76;;
47962;Laerm;33723;50.928;6.960;2023-02-07T08:58:35;65.46;53.12;75.12;;
47962;Laerm;33723;50.928;6.960;2023-02-07T09:01:01;66.91;55.57;76.84;;
47962;Laerm;33723;50.928;6.960;2023-02-07T09:03:26;65.30;49.81;79.14;;
47962;Laerm;33723;50.928;6.960;2023-02-07T09:05:55;62.56;50.79;70.55;;
47962;Laerm;33723;50.928;6.960;2023-02-07T09:08:21;68.70;54.21;80.57;;
47962;Laerm;33723;50.928;6.960;2023-02-07T09:10:46;67.05;52.47;75.84;;
47962;Laerm;33723;50.928;6.960;2023-02-07T09:13:11;66.84;55.11;77.87;;
47962;Laerm;33723;50.928;6.960;2023-02-07T09:15:36;63.55;53.22;72.53;;
47962;Laerm;33723;50.928;6.960;2023-02-07T09:18:02;63.80;53.57;72.64;;
47962;Laerm;33723;50.928;6.960;2023-02-07T09:20:27;65.76;50.92;74.18;;
47962;Laerm;33723;50.928;6.960;2023-02-07T09:22:52;68.02;53.50;79.03;;
47962;Laerm;33723;50.928;6.960;2023-02-07T09:25:37;64.86;53.53;75.40;;
47962;Laerm;33723;50.928;6.960;2023-02-07T09:28:03;68.03;54.70;80.67;;
47962;Laerm;33723;50.928;6.960;2023-02-07T09:30:28;62.10;53.26;72.11;;
47962;Laerm;33723;50.928;6.960;2023-02-07T09:32:53;65.24;52.93;76.08;;
47962;Laerm;33723;50.928;6.960;2023-02-07T09:35:18;65.37;56.67;74.71;;
47962;Laerm;33723;50.928;6.960;2023-02-07T09:37:44;63.40;49.36;79.36;;
47962;Laerm;33723;50.928;6.960;2023-02-07T09:40:11;66.64;51.77;77.66;;
47962;Laerm;33723;50.928;6.960;2023-02-07T09:45:18;70.84;56.93;85.76;;
47962;Laerm;33723;50.928;6.960;2023-02-07T09:47:44;65.61;52.22;79.30;;
47962;Laerm;33723;50.928;6.960;2023-02-07T09:50:14;68.60;54.26;79.82;;
47962;Laerm;33723;50.928;6.960;2023-02-07T09:52:44;64.29;51.12;81.90;;
47962;Laerm;33723;50.928;6.960;2023-02-07T09:55:44;68.36;52.11;82.32;;
47962;Laerm;33723;50.928;6.960;2023-02-07T09:58:12;63.72;48.74;81.07;;
47962;Laerm;33723;50.928;6.960;2023-02-07T10:00:38;65.64;52.24;75.42;;
47962;Laerm;33723;50.928;6.960;2023-02-07T10:03:11;64.75;51.72;78.87;;
47962;Laerm;33723;50.928;6.960;2023-02-07T10:05:43;66.81;52.83;79.48;;
47962;Laerm;33723;50.928;6.960;2023-02-07T10:08:13;62.87;49.27;74.76;;
47962;Laerm;33723;50.928;6.960;2023-02-07T10:10:43;65.19;52.31;77.89;;
47962;Laerm;33723;50.928;6.960;2023-02-07T10:15:56;65.07;53.16;79.47;;
47962;Laerm;33723;50.928;6.960;2023-02-07T10:23:25;66.23;51.77;75.47;;
47962;Laerm;33723;50.928;6.960;2023-02-07T10:28:29;64.51;53.20;74.07;;
47962;Laerm;33723;50.928;6.960;2023-02-07T10:30:59;66.18;51.75;76.92;;
47962;Laerm;33723;50.928;6.960;2023-02-07T10:33:33;67.63;51.98;78.16;;
47962;Laerm;33723;50.928;6.960;2023-02-07T10:36:04;67.16;49.32;80.22;;
47962;Laerm;33723;50.928;6.960;2023-02-07T10:43:42;64.02;51.19;74.82;;
47962;Laerm;33723;50.928;6.960;2023-02-07T10:46:09;66.21;51.16;76.39;;
47962;Laerm;33723;50.928;6.960;2023-02-07T10:48:36;66.38;52.13;78.74;;
47962;Laerm;33723;50.928;6.960;2023-02-07T10:51:02;62.73;49.93;70.45;;
47962;Laerm;33723;50.928;6.960;2023-02-07T10:53:44;67.97;54.48;87.48;;
47962;Laerm;33723;50.928;6.960;2023-02-07T10:56:19;66.34;51.06;87.77;;
47962;Laerm;33723;50.928;6.960;2023-02-07T10:58:46;65.08;48.73;79.04;;
47962;Laerm;33723;50.928;6.960;2023-02-07T11:01:16;65.61;51.92;74.78;;
47962;Laerm;33723;50.928;6.960;2023-02-07T11:03:42;63.76;53.11;75.64;;
47962;Laerm;33723;50.928;6.960;2023-02-07T11:06:07;63.40;52.07;70.90;;
47962;Laerm;33723;50.928;6.960;2023-02-07T11:08:34;64.63;52.64;72.74;;
47962;Laerm;33723;50.928;6.960;2023-02-07T11:13:45;64.34;52.06;75.30;;
47962;Laerm;33723;50.928;6.960;2023-02-07T11:16:11;63.99;51.77;72.37;;
47962;Laerm;33723;50.928;6.960;2023-02-07T11:18:43;68.99;50.85;79.70;;
47962;Laerm;33723;50.928;6.960;2023-02-07T11:21:26;65.98;53.58;76.05;;
47962;Laerm;33723;50.928;6.960;2023-02-07T11:23:52;67.07;50.70;89.67;;
47962;Laerm;33723;50.928;6.960;2023-02-07T11:26:19;66.97;53.85;81.14;;
47962;Laerm;33723;50.928;6.960;2023-02-07T11:28:44;65.34;52.58;76.85;;
47962;Laerm;33723;50.928;6.960;2023-02-07T11:31:11;65.71;50.15;77.35;;
47962;Laerm;33723;50.928;6.960;2023-02-07T11:33:40;62.18;47.38;73.69;;
47962;Laerm;33723;50.928;6.960;2023-02-07T11:36:10;69.52;52.67;83.32;;
47962;Laerm;33723;50.928;6.960;2023-02-07T11:38:38;65.55;48.78;78.65;;
47962;Laerm;33723;50.928;6.960;2023-02-07T11:41:04;64.27;54.18;80.67;;
47962;Laerm;33723;50.928;6.960;2023-02-07T11:43:31;63.46;51.09;80.01;;
47962;Laerm;33723;50.928;6.960;2023-02-07T11:46:05;63.69;53.99;73.82;;
47962;Laerm;33723;50.928;6.960;2023-02-07T11:48:33;66.02;49.08;76.97;;
47962;Laerm;33723;50.928;6.960;2023-02-07T11:51:00;65.23;52.35;75.27;;
47962;Laerm;33723;50.928;6.960;2023-02-07T11:53:34;68.62;53.96;82.68;;
47962;Laerm;33723;50.928;6.960;2023-02-07T11:56:01;65.53;49.35;83.26;;
47962;Laerm;33723;50.928;6.960;2023-02-07T11:58:37;65.70;52.75;75.78;;
47962;Laerm;33723;50.928;6.960;2023-02-07T12:01:03;68.53;53.69;79.61;;
47962;Laerm;33723;50.928;6.960;2023-02-07T12:03:33;64.71;55.47;73.49;;
47962;Laerm;33723;50.928;6.960;2023-02-07T12:06:05;65.50;53.64;75.43;;
47962;Laerm;33723;50.928;6.960;2023-02-07T12:08:32;64.36;51.24;72.64;;
47962;Laerm;33723;50.928;6.960;2023-02-07T12:11:07;66.47;51.03;76.94;;
47962;Laerm;33723;50.928;6.960;2023-02-07T12:13:38;64.76;51.21;72.30;;
47962;Laerm;33723;50.928;6.960;2023-02-07T12:16:07;66.65;53.20;79.29;;
47962;Laerm;33723;50.928;6.960;2023-02-07T12:19:09;64.34;51.87;76.67;;
47962;Laerm;33723;50.928;6.960;2023-02-07T12:21:46;65.74;54.03;74.98;;
47962;Laerm;33723;50.928;6.960;2023-02-07T12:24:20;66.22;52.08;77.65;;
47962;Laerm;33723;50.928;6.960;2023-02-07T12:32:09;65.56;53.17;74.08;;
47962;Laerm;33723;50.928;6.960;2023-02-07T12:37:18;66.99;53.68;82.62;;
47962;Laerm;33723;50.928;6.960;2023-02-07T12:44:58;66.43;53.58;84.65;;
47962;Laerm;33723;50.928;6.960;2023-02-07T12:57:34;65.34;54.53;77.31;;
47962;Laerm;33723;50.928;6.960;2023-02-07T13:00:22;67.34;50.71;81.39;;
47962;Laerm;33723;50.928;6.960;2023-02-07T13:13:12;65.49;51.87;73.43;;
47962;Laerm;33723;50.928;6.960;2023-02-07T13:15:42;67.45;52.55;80.63;;
47962;Laerm;33723;50.928;6.960;2023-02-07T13:18:24;66.22;53.38;76.64;;
47962;Laerm;33723;50.928;6.960;2023-02-07T13:23:39;66.71;50.73;81.68;;
47962;Laerm;33723;50.928;6.960;2023-02-07T13:26:09;64.60;50.40;75.89;;
47962;Laerm;33723;50.928;6.960;2023-02-07T13:28:42;65.29;53.56;73.85;;
47962;Laerm;33723;50.928;6.960;2023-02-07T13:31:10;68.01;54.52;77.47;;
47962;Laerm;33723;50.928;6.960;2023-02-07T13:33:38;66.10;55.89;79.49;;
47962;Laerm;33723;50.928;6.960;2023-02-07T13:36:46;65.55;52.31;77.04;;
47962;Laerm;33723;50.928;6.960;2023-02-07T13:39:04;67.91;54.73;80.52;;
47962;Laerm;33723;50.928;6.960;2023-02-07T13:41:38;67.25;53.64;84.37;;
47962;Laerm;33723;50.928;6.960;2023-02-07T13:56:34;64.09;52.24;76.70;;
47962;Laerm;33723;50.928;6.960;2023-02-07T13:59:35;65.82;51.01;75.55;;
47962;Laerm;33723;50.928;6.960;2023-02-07T14:02:04;64.75;51.05;74.75;;
47962;Laerm;33723;50.928;6.960;2023-02-07T14:04:52;66.98;54.66;75.81;;
47962;Laerm;33723;50.928;6.960;2023-02-07T14:07:27;67.21;52.50;78.95;;
47962;Laerm;33723;50.928;6.960;2023-02-07T14:09:56;67.00;54.02;82.60;;
47962;Laerm;33723;50.928;6.960;2023-02-07T14:12:26;67.37;52.75;80.46;;
47962;Laerm;33723;50.928;6.960;2023-02-07T14:14:52;65.88;54.44;78.73;;
47962;Laerm;33723;50.928;6.960;2023-02-07T14:19:55;67.35;53.19;77.85;;
47962;Laerm;33723;50.928;6.960;2023-02-07T14:22:22;63.90;53.15;77.72;;
47962;Laerm;33723;50.928;6.960;2023-02-07T14:25:36;65.41;54.55;75.85;;
47962;Laerm;33723;50.928;6.960;2023-02-07T14:27:34;67.33;55.35;76.11;;
47962;Laerm;33723;50.928;6.960;2023-02-07T14:38:31;68.49;54.88;79.23;;
47962;Laerm;33723;50.928;6.960;2023-02-07T14:41:01;66.66;53.79;80.69;;
47962;Laerm;33723;50.928;6.960;2023-02-07T14:49:18;66.28;53.47;77.57;;
47962;Laerm;33723;50.928;6.960;2023-02-07T14:51:48;64.89;53.68;74.49;;
47962;Laerm;33723;50.928;6.960;2023-02-07T14:56:42;75.96;54.29;96.39;;
47962;Laerm;33723;50.928;6.960;2023-02-07T14:59:10;69.65;54.61;83.03;;
47962;Laerm;33723;50.928;6.960;2023-02-07T15:01:38;65.10;54.54;71.21;;
47962;Laerm;33723;50.928;6.960;2023-02-07T15:04:04;65.03;53.08;74.76;;
47962;Laerm;33723;50.928;6.960;2023-02-07T15:06:35;68.27;53.62;95.08;;
47962;Laerm;33723;50.928;6.960;2023-02-07T15:09:01;66.16;54.61;75.47;;
47962;Laerm;33723;50.928;6.960;2023-02-07T15:11:28;67.11;52.93;77.05;;
47962;Laerm;33723;50.928;6.960;2023-02-07T15:13:54;65.08;51.22;76.50;;
47962;Laerm;33723;50.928;6.960;2023-02-07T15:16:23;66.03;51.85;74.24;;
47962;Laerm;33723;50.928;6.960;2023-02-07T15:21:16;66.08;52.70;79.09;;
47962;Laerm;33723;50.928;6.960;2023-02-07T15:23:43;66.75;51.67;76.04;;
47962;Laerm;33723;50.928;6.960;2023-02-07T15:26:08;66.63;50.79;78.52;;
47962;Laerm;33723;50.928;6.960;2023-02-07T15:28:34;65.40;53.47;74.04;;
47962;Laerm;33723;50.928;6.960;2023-02-07T15:33:38;65.40;51.99;74.97;;
47962;Laerm;33723;50.928;6.960;2023-02-07T15:36:04;66.76;51.60;78.33;;
47962;Laerm;33723;50.928;6.960;2023-02-07T15:38:29;67.12;52.32;78.28;;
47962;Laerm;33723;50.928;6.960;2023-02-07T15:40:55;66.38;52.34;76.19;;
47962;Laerm;33723;50.928;6.960;2023-02-07T15:43:25;66.40;52.69;78.95;;
47962;Laerm;33723;50.928;6.960;2023-02-07T15:46:01;66.24;51.70;73.77;;
47962;Laerm;33723;50.928;6.960;2023-02-07T15:48:27;66.90;52.54;79.92;;
47962;Laerm;33723;50.928;6.960;2023-02-07T15:50:52;67.23;52.48;76.24;;
47962;Laerm;33723;50.928;6.960;2023-02-07T15:53:20;66.38;55.87;74.25;;
47962;Laerm;33723;50.928;6.960;2023-02-07T15:55:48;67.62;52.38;78.30;;
47962;Laerm;33723;50.928;6.960;2023-02-07T15:58:20;66.43;52.91;75.92;;
47962;Laerm;33723;50.928;6.960;2023-02-07T16:00:46;67.19;52.71;79.99;;
47962;Laerm;33723;50.928;6.960;2023-02-07T16:03:20;67.14;54.29;83.06;;
47962;Laerm;33723;50.928;6.960;2023-02-07T16:05:45;66.14;53.84;73.91;;
47962;Laerm;33723;50.928;6.960;2023-02-07T16:08:31;66.96;52.07;77.22;;
47962;Laerm;33723;50.928;6.960;2023-02-07T16:13:44;64.38;50.86;76.08;;
47962;Laerm;33723;50.928;6.960;2023-02-07T16:16:14;65.57;52.55;74.78;;
47962;Laerm;33723;50.928;6.960;2023-02-07T16:18:42;65.74;50.85;75.91;;
47962;Laerm;33723;50.928;6.960;2023-02-07T16:21:15;64.70;50.97;74.83;;
47962;Laerm;33723;50.928;6.960;2023-02-07T16:23:41;66.24;52.90;84.36;;
47962;Laerm;33723;50.928;6.960;2023-02-07T16:26:07;65.61;52.52;76.32;;
47962;Laerm;33723;50.928;6.960;2023-02-07T16:28:32;64.83;51.50;78.97;;
47962;Laerm;33723;50.928;6.960;2023-02-07T16:30:58;65.36;51.64;74.78;;
47962;Laerm;33723;50.928;6.960;2023-02-07T16:33:23;66.83;51.96;75.70;;
47962;Laerm;33723;50.928;6.960;2023-02-07T16:35:49;64.93;53.76;73.61;;
47962;Laerm;33723;50.928;6.960;2023-02-07T16:38:15;65.06;54.58;75.41;;
47962;Laerm;33723;50.928;6.960;2023-02-07T16:40:40;67.00;53.37;75.69;;
47962;Laerm;33723;50.928;6.960;2023-02-07T16:43:05;67.18;49.63;83.55;;
47962;Laerm;33723;50.928;6.960;2023-02-07T16:45:32;67.68;51.73;81.64;;
47962;Laerm;33723;50.928;6.960;2023-02-07T16:47:57;64.87;51.76;74.43;;
47962;Laerm;33723;50.928;6.960;2023-02-07T16:50:24;64.07;52.90;72.55;;
47962;Laerm;33723;50.928;6.960;2023-02-07T16:52:50;67.60;52.66;78.07;;
47962;Laerm;33723;50.928;6.960;2023-02-07T16:55:16;65.00;54.96;76.09;;
47962;Laerm;33723;50.928;6.960;2023-02-07T16:57:42;66.16;52.44;75.49;;
47962;Laerm;33723;50.928;6.960;2023-02-07T17:00:09;65.40;53.45;73.43;;
47962;Laerm;33723;50.928;6.960;2023-02-07T17:02:37;65.08;53.90;73.35;;
47962;Laerm;33723;50.928;6.960;2023-02-07T17:05:02;65.07;51.93;76.16;;
47962;Laerm;33723;50.928;6.960;2023-02-07T17:07:27;65.21;53.97;74.14;;
47962;Laerm;33723;50.928;6.960;2023-02-07T17:09:53;66.06;53.21;78.86;;
47962;Laerm;33723;50.928;6.960;2023-02-07T17:12:18;64.62;53.46;76.29;;
47962;Laerm;33723;50.928;6.960;2023-02-07T17:14:43;64.99;53.73;74.71;;
47962;Laerm;33723;50.928;6.960;2023-02-07T17:17:09;65.93;54.43;73.26;;
47962;Laerm;33723;50.928;6.960;2023-02-07T17:19:35;66.58;52.76;77.73;;
47962;Laerm;33723;50.928;6.960;2023-02-07T17:22:01;64.16;52.32;73.88;;
47962;Laerm;33723;50.928;6.960;2023-02-07T17:24:26;65.24;51.87;76.74;;
47962;Laerm;33723;50.928;6.960;2023-02-07T17:26:52;66.11;53.19;76.40;;
47962;Laerm;33723;50.928;6.960;2023-02-07T17:29:18;64.87;52.13;75.11;;
47962;Laerm;33723;50.928;6.960;2023-02-07T17:31:44;65.15;53.01;74.33;;
47962;Laerm;33723;50.928;6.960;2023-02-07T17:34:09;65.43;54.33;73.16;;
47962;Laerm;33723;50.928;6.960;2023-02-07T17:36:34;63.51;53.45;74.14;;
47962;Laerm;33723;50.928;6.960;2023-02-07T17:39:00;65.80;52.94;73.67;;
47962;Laerm;33723;50.928;6.960;2023-02-07T17:41:25;65.76;54.05;75.53;;
47962;Laerm;33723;50.928;6.960;2023-02-07T17:43:51;64.57;52.71;73.19;;
47962;Laerm;33723;50.928;6.960;2023-02-07T17:48:42;65.67;52.01;75.79;;
47962;Laerm;33723;50.928;6.960;2023-02-07T17:51:07;63.94;50.98;73.04;;
47962;Laerm;33723;50.928;6.960;2023-02-07T17:53:32;65.55;52.39;72.52;;
47962;Laerm;33723;50.928;6.960;2023-02-07T17:55:57;63.65;53.50;74.08;;
47962;Laerm;33723;50.928;6.960;2023-02-07T17:58:23;64.12;51.48;74.50;;
47962;Laerm;33723;50.928;6.960;2023-02-07T18:00:48;65.64;52.68;75.55;;
47962;Laerm;33723;50.928;6.960;2023-02-07T18:03:13;64.13;51.01;73.84;;
47962;Laerm;33723;50.928;6.960;2023-02-07T18:05:40;63.00;52.17;71.11;;
47962;Laerm;33723;50.928;6.960;2023-02-07T18:08:06;65.38;51.62;74.36;;
47962;Laerm;33723;50.928;6.960;2023-02-07T18:10:32;64.37;50.77;71.70;;
47962;Laerm;33723;50.928;6.960;2023-02-07T18:12:59;64.51;52.26;76.04;;
47962;Laerm;33723;50.928;6.960;2023-02-07T18:15:25;66.84;52.66;78.64;;
47962;Laerm;33723;50.928;6.960;2023-02-07T18:17:51;64.29;51.48;74.16;;
47962;Laerm;33723;50.928;6.960;2023-02-07T18:20:18;65.43;50.99;76.84;;
47962;Laerm;33723;50.928;6.960;2023-02-07T18:22:43;64.43;51.98;74.51;;
47962;Laerm;33723;50.928;6.960;2023-02-07T18:25:08;64.85;51.44;75.83;;
47962;Laerm;33723;50.928;6.960;2023-02-07T18:27:34;63.46;49.87;72.93;;
47962;Laerm;33723;50.928;6.960;2023-02-07T18:29:59;64.50;49.46;84.06;;
47962;Laerm;33723;50.928;6.960;2023-02-07T18:32:24;66.94;50.91;79.54;;
47962;Laerm;33723;50.928;6.960;2023-02-07T18:34:50;63.92;53.76;75.34;;
47962;Laerm;33723;50.928;6.960;2023-02-07T18:37:15;66.63;49.52;76.15;;
47962;Laerm;33723;50.928;6.960;2023-02-07T18:39:40;63.69;50.58;72.67;;
47962;Laerm;33723;50.928;6.960;2023-02-07T18:42:05;63.71;51.33;73.13;;
47962;Laerm;33723;50.928;6.960;2023-02-07T18:44:31;65.06;46.93;82.33;;
47962;Laerm;33723;50.928;6.960;2023-02-07T18:46:56;62.35;48.29;73.49;;
47962;Laerm;33723;50.928;6.960;2023-02-07T18:49:21;63.55;50.77;71.63;;
47962;Laerm;33723;50.928;6.960;2023-02-07T18:51:47;63.72;50.75;76.51;;
47962;Laerm;33723;50.928;6.960;2023-02-07T18:54:12;64.82;49.96;76.27;;
47962;Laerm;33723;50.928;6.960;2023-02-07T18:56:38;62.95;49.52;72.54;;
47962;Laerm;33723;50.928;6.960;2023-02-07T18:59:05;63.80;50.05;76.78;;
47962;Laerm;33723;50.928;6.960;2023-02-07T19:01:30;63.29;49.57;69.92;;
47962;Laerm;33723;50.928;6.960;2023-02-07T19:03:56;63.54;50.77;76.61;;
47962;Laerm;33723;50.928;6.960;2023-02-07T19:06:30;63.06;49.62;76.49;;
47962;Laerm;33723;50.928;6.960;2023-02-07T19:08:56;62.66;45.97;72.26;;
47962;Laerm;33723;50.928;6.960;2023-02-07T19:11:21;62.97;50.91;73.51;;
47962;Laerm;33723;50.928;6.960;2023-02-07T19:13:47;63.63;48.98;71.90;;
47962;Laerm;33723;50.928;6.960;2023-02-07T19:16:13;62.00;49.79;69.62;;
47962;Laerm;33723;50.928;6.960;2023-02-07T19:18:39;60.61;47.59;69.48;;
47962;Laerm;33723;50.928;6.960;2023-02-07T19:21:05;62.72;47.81;76.80;;
47962;Laerm;33723;50.928;6.960;2023-02-07T19:23:31;61.89;46.20;70.83;;
47962;Laerm;33723;50.928;6.960;2023-02-07T19:25:56;62.40;47.81;76.88;;
47962;Laerm;33723;50.928;6.960;2023-02-07T19:28:22;62.75;46.28;72.43;;
47962;Laerm;33723;50.928;6.960;2023-02-07T19:30:48;64.57;46.33;77.68;;
47962;Laerm;33723;50.928;6.960;2023-02-07T19:33:13;64.48;46.32;78.03;;
47962;Laerm;33723;50.928;6.960;2023-02-07T19:35:38;61.90;46.13;77.41;;
47962;Laerm;33723;50.928;6.960;2023-02-07T19:38:03;61.68;48.08;72.70;;
47962;Laerm;33723;50.928;6.960;2023-02-07T19:40:29;61.96;50.52;70.37;;
47962;Laerm;33723;50.928;6.960;2023-02-07T19:42:54;63.86;49.40;76.69;;
47962;Laerm;33723;50.928;6.960;2023-02-07T19:45:20;61.18;47.10;72.03;;
47962;Laerm;33723;50.928;6.960;2023-02-07T19:47:45;63.37;45.91;74.85;;
47962;Laerm;33723;50.928;6.960;2023-02-07T19:50:10;60.94;46.02;72.89;;
47962;Laerm;33723;50.928;6.960;2023-02-07T19:52:37;63.92;47.65;76.16;;
47962;Laerm;33723;50.928;6.960;2023-02-07T19:55:03;61.08;44.83;71.19;;
47962;Laerm;33723;50.928;6.960;2023-02-07T19:57:29;60.99;45.01;69.98;;
47962;Laerm;33723;50.928;6.960;2023-02-07T19:59:54;63.60;46.62;75.18;;
47962;Laerm;33723;50.928;6.960;2023-02-07T20:02:20;61.41;46.66;75.29;;
47962;Laerm;33723;50.928;6.960;2023-02-07T20:04:45;62.08;46.38;74.11;;
47962;Laerm;33723;50.928;6.960;2023-02-07T20:07:10;63.51;50.43;73.42;;
47962;Laerm;33723;50.928;6.960;2023-02-07T20:09:35;60.20;45.04;70.40;;
47962;Laerm;33723;50.928;6.960;2023-02-07T20:12:00;61.49;45.80;69.80;;
47962;Laerm;33723;50.928;6.960;2023-02-07T20:14:26;62.78;44.97;70.50;;
47962;Laerm;33723;50.928;6.960;2023-02-07T20:16:51;62.40;48.10;69.40;;
47962;Laerm;33723;50.928;6.960;2023-02-07T20:19:16;62.12;48.96;69.78;;
47962;Laerm;33723;50.928;6.960;2023-02-07T20:21:41;62.41;48.81;69.40;;
47962;Laerm;33723;50.928;6.960;2023-02-07T20:24:07;62.36;47.50;73.50;;
47962;Laerm;33723;50.928;6.960;2023-02-07T20:26:33;62.48;48.62;73.22;;
47962;Laerm;33723;50.928;6.960;2023-02-07T20:29:02;59.19;46.15;75.05;;
47962;Laerm;33723;50.928;6.960;2023-02-07T20:31:27;62.72;45.07;74.04;;
47962;Laerm;33723;50.928;6.960;2023-02-07T20:33:53;62.40;50.22;70.60;;
47962;Laerm;33723;50.928;6.960;2023-02-07T20:36:20;61.39;44.90;73.07;;
47962;Laerm;33723;50.928;6.960;2023-02-07T20:38:45;62.14;45.04;74.11;;
47962;Laerm;33723;50.928;6.960;2023-02-07T20:41:15;59.67;47.06;69.92;;
47962;Laerm;33723;50.928;6.960;2023-02-07T20:43:53;58.54;44.51;67.90;;
47962;Laerm;33723;50.928;6.960;2023-02-07T20:46:18;60.83;50.91;68.63;;
47962;Laerm;33723;50.928;6.960;2023-02-07T20:48:43;60.10;45.83;67.27;;
47962;Laerm;33723;50.928;6.960;2023-02-07T20:51:09;60.93;44.97;72.83;;
47962;Laerm;33723;50.928;6.960;2023-02-07T20:53:35;60.72;45.77;71.56;;
47962;Laerm;33723;50.928;6.960;2023-02-07T20:56:05;58.44;45.63;67.92;;
47962;Laerm;33723;50.928;6.960;2023-02-07T20:58:31;58.85;45.45;68.10;;
47962;Laerm;33723;50.928;6.960;2023-02-07T21:00:56;61.01;47.22;70.64;;
47962;Laerm;33723;50.928;6.960;2023-02-07T21:03:25;63.20;45.77;75.11;;
47962;Laerm;33723;50.928;6.960;2023-02-07T21:05:50;61.20;46.55;72.03;;
47962;Laerm;33723;50.928;6.960;2023-02-07T21:08:16;61.99;47.24;72.17;;
47962;Laerm;33723;50.928;6.960;2023-02-07T21:10:42;62.04;47.26;69.32;;
47962;Laerm;33723;50.928;6.960;2023-02-07T21:13:07;62.38;45.86;70.31;;
47962;Laerm;33723;50.928;6.960;2023-02-07T21:15:32;61.40;46.18;72.54;;
47962;Laerm;33723;50.928;6.960;2023-02-07T21:17:57;63.39;48.32;72.37;;
47962;Laerm;33723;50.928;6.960;2023-02-07T21:20:22;62.41;44.87;72.81;;
47962;Laerm;33723;50.928;6.960;2023-02-07T21:22:48;64.03;47.44;73.46;;
47962;Laerm;33723;50.928;6.960;2023-02-07T21:25:13;61.63;45.97;71.17;;
47962;Laerm;33723;50.928;6.960;2023-02-07T21:27:38;61.50;46.25;71.34;;